createdAt,value
2023-02-08T00:01:15.806Z,3.13
2023-02-08T00:03:43.241Z,3.35
2023-02-08T00:06:10.676Z,3.42
2023-02-08T00:08:38.634Z,4.15
2023-02-08T00:11:06.977Z,3.30
2023-02-08T00:13:35.049Z,3.38
2023-02-08T00:16:05.375Z,3.83
2023-02-08T00:18:32.569Z,3.20
2023-02-08T00:20:59.616Z,3.10
2023-02-08T00:23:27.213Z,3.28
2023-02-08T00:25:54.327Z,4.38
2023-02-08T00:28:21.587Z,3.30
2023-02-08T00:30:48.985Z,4.22
2023-02-08T00:33:16.187Z,3.65
2023-02-08T00:35:43.236Z,2.65
2023-02-08T00:38:10.483Z,2.88
2023-02-08T00:40:38.629Z,2.67
2023-02-08T00:43:07.032Z,2.30
2023-02-08T00:45:35.061Z,3.00
2023-02-08T00:48:01.990Z,3.13
2023-02-08T00:50:29.018Z,2.60
2023-02-08T00:52:56.675Z,2.30
2023-02-08T00:55:25.982Z,1.77
2023-02-08T00:57:53.047Z,1.98
2023-02-08T01:00:20.413Z,2.00
2023-02-08T01:02:47.447Z,2.58
2023-02-08T01:05:14.658Z,2.67
2023-02-08T01:07:45.538Z,3.00
2023-02-08T01:10:13.047Z,2.72
2023-02-08T01:12:41.025Z,2.65
2023-02-08T01:15:11.259Z,3.13
2023-02-08T01:17:38.836Z,3.42
2023-02-08T01:20:06.386Z,3.15
2023-02-08T01:22:33.366Z,3.17
2023-02-08T01:25:01.324Z,4.28
2023-02-08T01:27:29.648Z,3.47
2023-02-08T01:29:56.884Z,3.78
2023-02-08T01:32:29.044Z,2.58
2023-02-08T01:34:56.054Z,2.60
2023-02-08T01:37:23.025Z,2.53
2023-02-08T01:39:50.016Z,2.25
2023-02-08T01:42:19.136Z,2.53
2023-02-08T01:45:21.278Z,2.38
2023-02-08T01:47:54.692Z,2.55
2023-02-08T01:50:26.492Z,2.50
2023-02-08T01:52:53.650Z,2.08
2023-02-08T01:55:31.132Z,2.25
2023-02-08T01:58:01.810Z,1.88
2023-02-08T02:00:29.114Z,1.90
2023-02-08T02:02:58.641Z,1.67
2023-02-08T02:05:30.350Z,2.63
2023-02-08T02:08:05.669Z,2.00
2023-02-08T02:10:35.411Z,2.13
2023-02-08T02:13:06.997Z,1.95
2023-02-08T02:15:34.542Z,2.00
2023-02-08T02:18:05.184Z,1.77
2023-02-08T02:20:59.573Z,2.17
2023-02-08T02:23:39.175Z,2.38
2023-02-08T02:26:41.838Z,2.60
2023-02-08T02:29:27.207Z,2.33
2023-02-08T02:32:12.780Z,2.10
2023-02-08T02:34:55.166Z,2.80
2023-02-08T02:37:49.307Z,3.45
2023-02-08T02:40:21.577Z,3.72
2023-02-08T02:43:38.804Z,3.50
2023-02-08T02:46:05.680Z,3.15
2023-02-08T02:48:47.489Z,2.90
2023-02-08T02:51:37.699Z,2.65
2023-02-08T02:54:14.480Z,3.60
2023-02-08T02:56:56.043Z,2.30
2023-02-08T02:59:23.672Z,1.80
2023-02-08T03:01:50.670Z,2.47
2023-02-08T03:04:39.046Z,2.03
2023-02-08T03:07:09.097Z,2.17
2023-02-08T03:09:54.168Z,1.77
2023-02-08T03:15:15.877Z,2.35
2023-02-08T03:18:01.934Z,3.22
2023-02-08T03:20:33.493Z,2.03
2023-02-08T03:23:00.443Z,2.33
2023-02-08T03:25:35.782Z,1.77
2023-02-08T03:28:28.875Z,1.55
2023-02-08T03:31:32.718Z,1.55
2023-02-08T03:34:16.666Z,1.80
2023-02-08T03:36:51.355Z,1.95
2023-02-08T03:41:53.145Z,2.15
2023-02-08T03:44:33.006Z,1.77
2023-02-08T03:47:13.724Z,1.75
2023-02-08T03:49:43.886Z,1.73
2023-02-08T03:52:11.481Z,1.80
2023-02-08T03:54:56.177Z,1.90
2023-02-08T03:57:27.801Z,1.80
2023-02-08T04:00:01.280Z,2.20
2023-02-08T04:02:34.099Z,1.92
2023-02-08T04:05:02.220Z,1.92
2023-02-08T04:07:29.218Z,2.25
2023-02-08T04:09:57.218Z,2.10
2023-02-08T04:12:24.139Z,2.22
2023-02-08T04:14:51.082Z,1.98
2023-02-08T04:17:18.060Z,1.85
2023-02-08T04:19:45.007Z,1.85
2023-02-08T04:22:12.056Z,1.90
2023-02-08T04:24:39.136Z,1.88
2023-02-08T04:27:06.216Z,1.83
2023-02-08T04:29:33.240Z,2.22
2023-02-08T04:32:00.607Z,2.03
2023-02-08T04:34:27.677Z,2.05
2023-02-08T04:36:54.612Z,2.30
2023-02-08T04:39:21.660Z,1.95
2023-02-08T04:41:48.707Z,2.33
2023-02-08T04:44:15.728Z,1.80
2023-02-08T04:46:42.724Z,2.33
2023-02-08T04:49:09.702Z,1.83
2023-02-08T04:51:36.863Z,2.03
2023-02-08T04:54:03.956Z,2.03
2023-02-08T04:56:33.640Z,2.13
2023-02-08T04:59:01.176Z,1.95
2023-02-08T05:01:28.403Z,1.50
2023-02-08T05:03:55.549Z,3.80
2023-02-08T05:06:25.281Z,2.60
2023-02-08T05:08:52.609Z,2.20
2023-02-08T05:11:24.928Z,2.00
2023-02-08T05:13:52.228Z,2.72
2023-02-08T05:16:19.342Z,2.08
2023-02-08T05:18:46.807Z,2.30
2023-02-08T05:21:13.845Z,2.22
2023-02-08T05:23:41.991Z,2.17
2023-02-08T05:26:11.568Z,2.95
2023-02-08T05:28:38.619Z,1.95
2023-02-08T05:31:22.051Z,2.70
2023-02-08T05:33:51.628Z,2.50
2023-02-08T05:36:19.830Z,3.17
2023-02-08T05:38:47.388Z,2.28
2023-02-08T05:41:14.838Z,2.30
2023-02-08T05:43:42.050Z,2.63
2023-02-08T05:46:09.336Z,2.78
2023-02-08T05:48:36.308Z,2.50
2023-02-08T05:51:03.822Z,2.92
2023-02-08T05:53:33.349Z,2.72
2023-02-08T05:56:00.786Z,2.00
2023-02-08T05:58:28.410Z,2.30
2023-02-08T06:00:55.470Z,2.20
2023-02-08T06:03:23.124Z,2.15
2023-02-08T06:05:50.318Z,1.88
2023-02-08T06:08:17.636Z,2.67
2023-02-08T06:10:46.485Z,2.38
2023-02-08T06:13:13.628Z,1.70
2023-02-08T06:15:40.601Z,1.83
2023-02-08T06:18:09.603Z,1.85
2023-02-08T06:20:38.446Z,1.98
2023-02-08T06:23:05.688Z,2.45
2023-02-08T06:25:32.608Z,1.80
2023-02-08T06:27:59.620Z,2.00
2023-02-08T06:30:26.618Z,2.08
2023-02-08T06:32:53.614Z,1.88
2023-02-08T06:35:20.660Z,1.98
2023-02-08T06:37:47.545Z,2.00
2023-02-08T06:40:14.476Z,1.98
2023-02-08T06:42:43.037Z,1.92
2023-02-08T06:45:12.613Z,2.15
2023-02-08T06:47:40.758Z,2.28
2023-02-08T06:50:08.536Z,1.65
2023-02-08T06:52:35.537Z,1.80
2023-02-08T06:55:02.499Z,1.95
2023-02-08T06:57:29.860Z,2.25
2023-02-08T06:59:56.730Z,2.05
2023-02-08T07:02:23.847Z,1.90
2023-02-08T07:04:51.305Z,1.83
2023-02-08T07:07:19.199Z,2.25
2023-02-08T07:09:46.269Z,2.03
2023-02-08T07:12:13.253Z,3.03
2023-02-08T07:14:43.262Z,2.08
2023-02-08T07:17:11.158Z,2.15
2023-02-08T07:19:39.279Z,1.98
2023-02-08T07:22:09.413Z,2.08
2023-02-08T07:24:38.272Z,2.72
2023-02-08T07:27:06.865Z,2.70
2023-02-08T07:29:34.968Z,2.08
2023-02-08T07:32:03.290Z,2.13
2023-02-08T07:34:33.095Z,2.30
2023-02-08T07:37:00.105Z,1.60
2023-02-08T07:39:27.302Z,1.98
2023-02-08T07:41:54.508Z,2.00
2023-02-08T07:44:22.700Z,3.15
2023-02-08T07:46:49.677Z,2.10
2023-02-08T07:49:16.598Z,2.15
2023-02-08T07:51:43.754Z,2.00
2023-02-08T07:54:10.734Z,2.13
2023-02-08T07:56:37.754Z,2.17
2023-02-08T07:59:04.927Z,2.10
2023-02-08T08:01:31.874Z,2.00
2023-02-08T08:03:58.926Z,2.00
2023-02-08T08:06:26.397Z,2.00
2023-02-08T08:08:53.847Z,2.17
2023-02-08T08:11:23.041Z,2.28
2023-02-08T08:13:50.893Z,2.63
2023-02-08T08:16:19.281Z,2.05
2023-02-08T08:18:47.253Z,2.90
2023-02-08T08:21:15.415Z,1.90
2023-02-08T08:23:42.845Z,2.40
2023-02-08T08:26:11.917Z,2.13
2023-02-08T08:28:38.873Z,2.88
2023-02-08T08:31:18.376Z,2.63
2023-02-08T08:33:45.792Z,2.13
2023-02-08T08:36:13.273Z,2.70
2023-02-08T08:38:41.176Z,2.38
2023-02-08T08:41:14.945Z,2.25
2023-02-08T08:43:42.104Z,2.35
2023-02-08T08:46:10.166Z,2.40
2023-02-08T08:48:38.878Z,2.15
2023-02-08T08:51:07.124Z,2.22
2023-02-08T08:53:35.216Z,2.10
2023-02-08T08:56:02.382Z,2.20
2023-02-08T08:58:29.686Z,2.05
2023-02-08T09:01:00.582Z,2.03
2023-02-08T09:03:28.992Z,2.22
2023-02-08T09:05:55.991Z,1.77
2023-02-08T09:08:23.016Z,2.15
2023-02-08T09:10:50.275Z,1.80
2023-02-08T09:13:19.948Z,2.33
2023-02-08T09:15:48.003Z,1.70
2023-02-08T09:18:15.891Z,2.65
2023-02-08T09:20:43.214Z,2.17
2023-02-08T09:23:10.348Z,2.53
2023-02-08T09:25:38.330Z,2.08
2023-02-08T09:28:05.619Z,2.30
2023-02-08T09:30:32.681Z,2.20
2023-02-08T09:32:59.584Z,2.28
2023-02-08T09:35:26.635Z,2.15
2023-02-08T09:37:55.866Z,2.38
2023-02-08T09:40:33.390Z,2.05
2023-02-08T09:43:25.821Z,1.77
2023-02-08T09:46:25.069Z,2.20
2023-02-08T09:48:53.216Z,1.98
2023-02-08T09:51:42.310Z,1.92
2023-02-08T09:54:18.843Z,1.95
2023-02-08T09:56:48.389Z,2.03
2023-02-08T09:59:35.541Z,1.92
2023-02-08T10:02:32.478Z,1.60
2023-02-08T10:05:10.550Z,1.98
2023-02-08T10:07:39.662Z,1.70
2023-02-08T10:10:14.249Z,1.70
2023-02-08T10:12:47.106Z,1.75
2023-02-08T10:15:34.734Z,1.50
2023-02-08T10:18:19.168Z,1.48
2023-02-08T10:20:54.985Z,1.50
2023-02-08T10:23:39.238Z,1.70
2023-02-08T10:26:21.943Z,2.10
2023-02-08T10:29:25.417Z,1.63
2023-02-08T10:32:17.691Z,2.03
2023-02-08T10:34:59.218Z,2.00
2023-02-08T10:37:34.765Z,1.70
2023-02-08T10:40:24.578Z,1.38
2023-02-08T10:43:00.898Z,1.38
2023-02-08T10:45:42.474Z,1.38
2023-02-08T10:48:15.883Z,1.40
2023-02-08T10:50:47.576Z,1.60
2023-02-08T10:53:17.565Z,2.17
2023-02-08T10:55:46.378Z,2.00
2023-02-08T10:58:20.159Z,1.83
2023-02-08T11:00:49.866Z,1.58
2023-02-08T11:03:21.176Z,1.40
2023-02-08T11:05:48.393Z,1.27
2023-02-08T11:08:28.009Z,1.70
2023-02-08T11:11:03.854Z,1.55
2023-02-08T11:14:07.472Z,1.33
2023-02-08T11:16:34.622Z,1.25
2023-02-08T11:19:07.923Z,1.40
2023-02-08T11:21:41.093Z,1.27
2023-02-08T11:24:30.236Z,1.77
2023-02-08T11:26:57.176Z,1.63
2023-02-08T11:29:29.602Z,1.90
2023-02-08T11:32:00.898Z,1.90
2023-02-08T11:34:32.748Z,1.80
2023-02-08T11:37:13.543Z,2.30
2023-02-08T11:39:44.502Z,2.30
2023-02-08T11:42:22.169Z,1.45
2023-02-08T11:44:50.039Z,2.10
2023-02-08T11:47:23.212Z,1.52
2023-02-08T11:49:56.390Z,1.52
2023-02-08T11:52:27.010Z,1.33
2023-02-08T11:54:55.944Z,1.10
2023-02-08T11:57:25.129Z,1.60
2023-02-08T12:00:16.479Z,1.30
2023-02-08T12:02:44.221Z,1.55
2023-02-08T12:05:18.844Z,1.52
2023-02-08T12:10:47.869Z,2.00
2023-02-08T12:13:42.330Z,1.90
2023-02-08T12:16:14.961Z,2.23
2023-02-08T12:19:00.158Z,2.55
2023-02-08T12:21:52.250Z,3.08
2023-02-08T12:24:55.933Z,2.85
2023-02-08T12:27:27.650Z,2.00
2023-02-08T12:30:02.631Z,2.80
2023-02-08T12:33:01.133Z,2.58
2023-02-08T12:35:45.624Z,3.28
2023-02-08T12:39:07.809Z,3.28
2023-02-08T12:41:49.835Z,3.10
2023-02-08T12:44:35.080Z,3.03
2023-02-08T12:47:04.278Z,2.42
2023-02-08T12:49:53.081Z,2.75
2023-02-08T12:52:41.592Z,2.50
2023-02-08T12:55:28.523Z,3.03
2023-02-08T12:58:17.972Z,2.47
2023-02-08T13:00:47.249Z,2.30
2023-02-08T13:03:16.825Z,2.50
2023-02-08T13:06:01.778Z,3.03
2023-02-08T13:08:50.521Z,2.65
2023-02-08T13:11:26.623Z,2.60
2023-02-08T13:14:06.589Z,3.28
2023-02-08T13:16:44.211Z,3.50
2023-02-08T13:19:26.388Z,3.67
2023-02-08T13:21:55.639Z,4.60
2023-02-08T13:24:42.456Z,3.72
2023-02-08T13:27:22.222Z,3.65
2023-02-08T13:29:52.442Z,3.75
2023-02-08T13:32:43.535Z,3.75
2023-02-08T13:35:27.380Z,3.58
2023-02-08T13:38:40.769Z,3.30
2023-02-08T13:41:17.731Z,3.78
2023-02-08T13:43:51.437Z,3.80
2023-02-08T13:46:20.972Z,3.65
2023-02-08T13:48:55.152Z,3.80
2023-02-08T13:51:52.540Z,3.08
2023-02-08T13:54:19.700Z,3.75
2023-02-08T13:56:53.146Z,3.75
2023-02-08T13:59:42.010Z,3.42
2023-02-08T14:02:23.189Z,3.55
2023-02-08T14:05:00.334Z,3.53
2023-02-08T14:07:47.415Z,3.53
2023-02-08T14:10:23.034Z,3.83
2023-02-08T14:13:02.021Z,3.97
2023-02-08T14:15:34.502Z,3.45
2023-02-08T14:18:02.546Z,3.83
2023-02-08T14:20:41.322Z,4.03
2023-02-08T14:23:24.864Z,3.40
2023-02-08T14:25:55.468Z,3.50
2023-02-08T14:28:39.418Z,4.00
2023-02-08T14:31:09.646Z,4.15
2023-02-08T14:33:56.845Z,2.92
2023-02-08T14:36:33.631Z,4.25
2023-02-08T14:39:24.548Z,3.35
2023-02-08T14:42:01.810Z,3.97
2023-02-08T14:44:37.913Z,3.75
2023-02-08T14:47:12.421Z,3.58
2023-02-08T14:49:45.125Z,4.40
2023-02-08T14:52:21.392Z,3.78
2023-02-08T14:55:08.401Z,3.53
2023-02-08T14:57:36.906Z,3.35
2023-02-08T15:00:21.570Z,3.38
2023-02-08T15:02:49.461Z,4.57
2023-02-08T15:05:28.597Z,3.70
2023-02-08T15:07:58.107Z,3.97
2023-02-08T15:10:26.996Z,4.72
2023-02-08T15:12:57.811Z,3.72
2023-02-08T15:15:36.833Z,3.72
2023-02-08T15:18:06.271Z,4.03
2023-02-08T15:20:39.165Z,4.30
2023-02-08T15:23:19.587Z,4.25
2023-02-08T15:25:57.589Z,4.50
2023-02-08T15:28:29.224Z,3.38
2023-02-08T15:30:59.125Z,4.20
2023-02-08T15:33:26.655Z,3.63
2023-02-08T15:36:05.156Z,4.95
2023-02-08T15:38:34.495Z,4.63
2023-02-08T15:41:10.336Z,4.05
2023-02-08T15:43:39.011Z,4.63
2023-02-08T15:46:19.370Z,3.28
2023-02-08T15:48:47.287Z,3.80
2023-02-08T15:51:16.262Z,3.83
2023-02-08T15:53:50.169Z,3.65
2023-02-08T15:56:35.813Z,3.92
2023-02-08T15:59:06.102Z,4.07
2023-02-08T16:01:33.588Z,3.50
2023-02-08T16:04:12.711Z,3.63
2023-02-08T16:06:47.274Z,3.40
2023-02-08T16:09:20.254Z,3.35
2023-02-08T16:11:50.444Z,3.38
2023-02-08T16:14:24.221Z,3.53
2023-02-08T16:16:56.806Z,4.15
2023-02-08T16:19:31.175Z,4.03
2023-02-08T16:22:25.706Z,4.13
2023-02-08T16:24:53.671Z,3.40
2023-02-08T16:27:31.513Z,4.20
2023-02-08T16:29:59.752Z,4.10
2023-02-08T16:32:32.662Z,3.75
2023-02-08T16:35:01.557Z,3.38
2023-02-08T16:37:32.846Z,3.28
2023-02-08T16:40:06.948Z,3.65
2023-02-08T16:42:42.803Z,2.95
2023-02-08T16:45:17.187Z,3.58
2023-02-08T16:47:45.695Z,3.55
2023-02-08T16:50:25.454Z,3.40
2023-02-08T16:52:59.933Z,4.07
2023-02-08T16:55:30.126Z,5.03
2023-02-08T16:57:58.820Z,3.30
2023-02-08T17:00:35.425Z,5.05
2023-02-08T17:03:02.885Z,2.92
2023-02-08T17:05:38.632Z,3.25
2023-02-08T17:08:10.129Z,4.85
2023-02-08T17:10:37.368Z,3.35
2023-02-08T17:13:19.806Z,3.20
2023-02-08T17:15:50.660Z,2.97
2023-02-08T17:18:17.826Z,3.45
2023-02-08T17:20:45.417Z,3.50
2023-02-08T17:23:13.159Z,2.97
2023-02-08T17:25:40.523Z,3.08
2023-02-08T17:28:12.257Z,3.13
2023-02-08T17:30:42.099Z,3.10
2023-02-08T17:33:18.394Z,2.80
2023-02-08T17:35:47.904Z,3.33
2023-02-08T17:38:15.699Z,3.45
2023-02-08T17:40:43.752Z,3.58
2023-02-08T17:43:13.352Z,3.55
2023-02-08T17:45:43.291Z,4.15
2023-02-08T17:48:13.570Z,3.28
2023-02-08T17:50:44.131Z,3.20
2023-02-08T17:53:11.431Z,3.75
2023-02-08T17:55:43.186Z,3.15
2023-02-08T17:58:10.969Z,3.20
2023-02-08T18:00:38.934Z,3.90
2023-02-08T18:03:05.933Z,4.00
2023-02-08T18:05:32.896Z,3.55
2023-02-08T18:08:00.045Z,3.75
2023-02-08T18:10:28.507Z,3.47
2023-02-08T18:12:55.511Z,3.33
2023-02-08T18:15:24.215Z,3.88
2023-02-08T18:17:51.216Z,4.13
2023-02-08T18:20:18.500Z,3.60
2023-02-08T18:22:46.207Z,2.92
2023-02-08T18:25:14.596Z,2.70
2023-02-08T18:27:42.121Z,3.10
2023-02-08T18:30:10.401Z,2.42
2023-02-08T18:32:37.504Z,3.35
2023-02-08T18:35:07.380Z,2.42
2023-02-08T18:37:38.640Z,2.63
2023-02-08T18:40:08.409Z,2.05
2023-02-08T18:42:36.263Z,1.85
2023-02-08T18:45:05.342Z,2.80
2023-02-08T18:47:32.692Z,1.92
2023-02-08T18:49:59.608Z,1.60
2023-02-08T18:52:26.613Z,1.88
2023-02-08T18:54:53.646Z,1.85
2023-02-08T18:57:20.873Z,2.40
2023-02-08T18:59:48.030Z,2.30
2023-02-08T19:02:22.196Z,2.65
2023-02-08T19:04:49.771Z,1.67
2023-02-08T19:07:16.825Z,1.35
2023-02-08T19:09:44.300Z,1.98
2023-02-08T19:12:15.564Z,2.25
2023-02-08T19:14:44.060Z,2.20
2023-02-08T19:17:13.666Z,2.20
2023-02-08T19:19:41.743Z,2.60
2023-02-08T19:22:09.391Z,3.80
2023-02-08T19:24:36.546Z,1.95
2023-02-08T19:27:03.621Z,2.22
2023-02-08T19:29:32.744Z,3.22
2023-02-08T19:31:59.678Z,3.45
2023-02-08T19:34:26.679Z,3.75
2023-02-08T19:36:55.118Z,3.95
2023-02-08T19:39:25.091Z,6.95
2023-02-08T19:41:58.742Z,4.72
2023-02-08T19:44:27.678Z,4.57
2023-02-08T19:46:56.403Z,4.10
2023-02-08T19:49:26.082Z,4.38
2023-02-08T19:51:53.608Z,4.20
2023-02-08T19:54:20.783Z,3.25
2023-02-08T19:56:51.106Z,3.50
2023-02-08T19:59:24.465Z,3.72
2023-02-08T20:01:52.278Z,3.38
2023-02-08T20:04:19.440Z,2.85
2023-02-08T20:06:46.695Z,2.80
2023-02-08T20:09:15.857Z,2.75
2023-02-08T20:11:56.507Z,3.15
2023-02-08T20:14:24.936Z,2.97
2023-02-08T20:16:51.955Z,2.33
2023-02-08T20:19:18.940Z,2.78
2023-02-08T20:21:45.841Z,2.70
2023-02-08T20:24:12.909Z,2.63
2023-02-08T20:26:43.860Z,2.40
2023-02-08T20:29:12.045Z,2.65
2023-02-08T20:31:42.708Z,2.80
2023-02-08T20:34:13.501Z,3.63
2023-02-08T20:36:49.700Z,3.10
2023-02-08T20:39:20.827Z,3.03
2023-02-08T20:41:48.348Z,2.72
2023-02-08T20:44:17.912Z,3.20
2023-02-08T20:46:45.481Z,2.58
2023-02-08T20:49:15.432Z,2.60
2023-02-08T20:51:43.539Z,2.70
2023-02-08T20:54:11.597Z,2.35
2023-02-08T20:56:39.459Z,2.75
2023-02-08T20:59:14.203Z,2.40
2023-02-08T21:04:08.460Z,2.72
2023-02-08T21:06:39.089Z,2.75
2023-02-08T21:09:11.766Z,2.17
2023-02-08T21:11:39.687Z,2.45
2023-02-08T21:14:08.310Z,3.63
2023-02-08T21:16:35.376Z,2.53
2023-02-08T21:19:02.482Z,2.50
2023-02-08T21:21:37.077Z,2.08
2023-02-08T21:24:04.315Z,2.30
2023-02-08T21:26:31.354Z,1.83
2023-02-08T21:28:58.973Z,2.20
2023-02-08T21:31:26.876Z,2.63
2023-02-08T21:33:54.099Z,2.30
2023-02-08T21:36:23.580Z,2.10
2023-02-08T21:38:50.884Z,1.90
2023-02-08T21:41:28.439Z,2.40
2023-02-08T21:43:58.898Z,2.60
2023-02-08T21:46:28.021Z,2.13
2023-02-08T21:49:13.898Z,2.60
2023-02-08T21:51:59.441Z,2.60
2023-02-08T21:54:46.695Z,2.60
2023-02-08T21:57:18.727Z,2.72
2023-02-08T21:59:47.841Z,2.55
2023-02-08T22:02:16.001Z,2.70
2023-02-08T22:04:46.831Z,2.90
2023-02-08T22:07:14.091Z,2.72
2023-02-08T22:09:42.140Z,1.77
2023-02-08T22:12:15.177Z,2.38
2023-02-08T22:14:42.469Z,2.30
2023-02-08T22:17:18.300Z,2.58
2023-02-08T22:19:45.232Z,2.90
2023-02-08T22:22:12.307Z,2.30
2023-02-08T22:24:39.317Z,2.25
2023-02-08T22:27:06.291Z,2.00
2023-02-08T22:29:36.677Z,2.50
2023-02-08T22:32:04.308Z,2.22
2023-02-08T22:34:31.383Z,2.15
2023-02-08T22:36:58.410Z,2.20
2023-02-08T22:39:25.333Z,2.70
2023-02-08T22:41:52.227Z,2.35
2023-02-08T22:44:19.285Z,2.45
2023-02-08T22:46:46.256Z,2.13
2023-02-08T22:49:13.207Z,2.53
2023-02-08T22:51:40.254Z,2.47
2023-02-08T22:54:07.141Z,4.80
2023-02-08T22:56:34.468Z,4.38
2023-02-08T22:59:01.568Z,4.55
2023-02-08T23:01:31.172Z,3.30
2023-02-08T23:04:00.462Z,3.47
2023-02-08T23:06:27.529Z,3.03
2023-02-08T23:08:55.237Z,3.17
2023-02-08T23:11:23.270Z,3.30
2023-02-08T23:13:50.694Z,2.63
2023-02-08T23:16:19.549Z,2.35
2023-02-08T23:18:47.114Z,2.25
2023-02-08T23:21:19.833Z,3.33
2023-02-08T23:23:48.465Z,2.75
2023-02-08T23:26:19.629Z,2.28
2023-02-08T23:28:49.133Z,2.47
2023-02-08T23:31:16.711Z,2.60
2023-02-08T23:33:44.143Z,2.38
2023-02-08T23:36:14.173Z,2.55
2023-02-08T23:38:42.229Z,2.80
2023-02-08T23:41:14.730Z,3.28
2023-02-08T23:43:41.845Z,2.33
2023-02-08T23:46:17.899Z,2.42
2023-02-08T23:48:47.731Z,2.38
2023-02-08T23:51:16.899Z,2.40
2023-02-08T23:53:44.295Z,2.30
2023-02-08T23:56:25.575Z,2.50
2023-02-08T23:58:55.567Z,2.45
